Time;durP1;ratioP1;P1;durP2;ratioP2;P2;SDS_P1;SDS_P2;PMS_P1;PMS_P2;Temp;Humidity;BMP_temperature;BMP_pressure;BME280_temperature;BME280_humidity;BME280_pressure;Samples;Min_cycle;Max_cycle;Signal;HPM_P1;HPM_P2
2024/01/11 00:01:10;;;;;;;3.00;0.45;;;;;;;5.81;93.78;102944.66;5064308;28;20048;-49
2024/01/11 00:03:37;;;;;;;;;;;;;;;5.79;94.02;102935.84;5064895;28;20044;-49
2024/01/11 00:06:05;;;;;;;1.63;0.47;;;;;;;5.81;94.07;102941.91;5060223;28;19928;-52
2024/01/11 00:08:32;;;;;;;1.45;0.60;;;;;;;5.82;93.95;102946.34;5051015;28;20048;-51
2024/01/11 00:11:00;;;;;;;3.47;0.73;;;;;;;5.81;93.88;102944.66;5060605;28;20066;-47
2024/01/11 00:13:27;;;;;;;2.03;0.98;;;;;;;5.83;93.98;102942.47;5058615;28;20060;-47
2024/01/11 00:15:55;;;;;;;3.40;0.40;;;;;;;5.84;93.95;102946.91;5053287;28;20041;-48
2024/01/11 00:18:22;;;;;;;2.78;0.50;;;;;;;5.84;93.96;102949.66;5067237;28;20036;-48
2024/01/11 00:20:49;;;;;;;1.73;0.65;;;;;;;5.84;94.00;102944.16;5066740;28;20048;-49
2024/01/11 00:23:17;;;;;;;5.28;2.28;;;;;;;5.85;94.02;102948.59;5066373;28;20394;-47
2024/01/11 00:25:44;;;;;;;8.55;0.85;;;;;;;5.85;94.14;102948.59;5033656;28;20049;-47
2024/01/11 00:28:12;;;;;;;2.35;0.57;;;;;;;5.86;93.95;102945.56;5055717;28;20052;-46
2024/01/11 00:30:40;;;;;;;1.48;0.73;;;;;;;5.86;94.33;102944.75;5053498;28;20063;-49
2024/01/11 00:33:08;;;;;;;2.30;0.80;;;;;;;5.87;94.36;102951.91;5067127;28;20795;-50
2024/01/11 00:35:36;;;;;;;6.38;1.25;;;;;;;5.87;94.14;102957.41;5066985;28;20067;-52
2024/01/11 00:38:03;;;;;;;3.60;1.00;;;;;;;5.87;93.94;102960.16;5066890;28;20044;-48
2024/01/11 00:40:32;;;;;;;1.25;0.70;;;;;;;5.87;93.93;102957.41;5066616;28;20044;-49
2024/01/11 00:42:59;;;;;;;0.85;0.43;;;;;;;5.88;94.18;102953.56;5055923;28;20049;-50
2024/01/11 00:45:26;;;;;;;1.83;0.60;;;;;;;5.87;94.05;102957.41;5064234;28;20563;-52
2024/01/11 00:47:54;;;;;;;2.88;0.50;;;;;;;5.88;93.93;102956.28;5056272;28;20052;-46
2024/01/11 00:50:21;;;;;;;1.60;0.40;;;;;;;5.87;94.10;102962.91;5064932;28;20047;-49
2024/01/11 00:52:48;;;;;;;1.42;0.38;;;;;;;5.87;93.92;102951.91;5037360;28;20049;-47
2024/01/11 00:55:16;;;;;;;2.08;0.32;;;;;;;5.89;93.79;102964.31;5067336;28;20043;-49
2024/01/11 00:57:44;;;;;;;4.40;0.45;;;;;;;5.89;93.92;102955.22;5070642;28;20048;-51
2024/01/11 01:00:15;;;;;;;7.32;0.88;;;;;;;5.87;93.84;102957.41;5069833;28;20060;-49
2024/01/11 01:02:43;;;;;;;1.38;0.35;;;;;;;5.86;93.84;102958.47;5069479;28;20048;-47
2024/01/11 01:05:10;;;;;;;1.98;0.40;;;;;;;5.87;93.60;102957.41;5070125;28;20056;-47
2024/01/11 01:07:38;;;;;;;3.90;0.40;;;;;;;5.87;93.72;102963.75;5070212;28;20048;-50
2024/01/11 01:10:06;;;;;;;1.48;0.32;;;;;;;5.87;93.69;102957.41;5058404;28;20037;-53
2024/01/11 01:12:34;;;;;;;0.70;0.38;;;;;;;5.86;93.68;102963.97;5070019;28;20098;-50
2024/01/11 01:15:01;;;;;;;0.88;0.28;;;;;;;5.85;93.53;102968.66;5070058;28;20060;-50
2024/01/11 01:17:29;;;;;;;1.65;0.28;;;;;;;5.84;93.51;102969.72;5069860;28;20048;-48
2024/01/11 01:19:57;;;;;;;1.65;0.45;;;;;;;5.85;93.31;102976.09;5070282;28;20056;-48
2024/01/11 01:22:24;;;;;;;1.45;0.32;;;;;;;5.84;93.42;102960.63;5066657;28;20857;-49
2024/01/11 01:24:52;;;;;;;0.52;0.40;;;;;;;5.84;93.17;102952.38;5052266;28;20033;-48
2024/01/11 01:27:19;;;;;;;4.28;0.35;;;;;;;5.85;93.08;102962.34;5069371;28;20048;-47
2024/01/11 01:29:46;;;;;;;4.88;0.65;;;;;;;5.86;92.89;102975.81;5069682;28;20060;-48
2024/01/11 01:32:14;;;;;;;2.00;0.52;;;;;;;5.88;92.74;102967.28;5069575;28;20056;-48
2024/01/11 01:34:41;;;;;;;2.70;0.57;;;;;;;5.87;92.60;102968.41;5069857;28;20060;-53
2024/01/11 01:37:11;;;;;;;3.53;0.82;;;;;;;5.87;92.75;102968.41;5052165;28;20060;-51
2024/01/11 01:39:39;;;;;;;4.20;0.50;;;;;;;5.88;92.78;102972.78;5070279;28;20513;-51
2024/01/11 01:42:06;;;;;;;0.70;0.30;;;;;;;5.87;92.62;102969.25;5069781;28;20406;-51
2024/01/11 01:44:34;;;;;;;2.15;0.40;;;;;;;5.87;92.69;102965.66;5061257;28;20049;-47
2024/01/11 01:47:04;;;;;;;2.85;0.60;;;;;;;5.88;92.55;102964.53;5059890;28;20052;-47
2024/01/11 01:49:32;;;;;;;3.25;0.50;;;;;;;5.88;92.30;102961.78;5061149;28;20581;-48
2024/01/11 01:51:59;;;;;;;2.15;0.30;;;;;;;5.89;92.56;102960.72;5066713;28;20044;-49
2024/01/11 01:54:27;;;;;;;1.35;0.40;;;;;;;5.91;92.43;102964.03;5069376;28;20497;-51
2024/01/11 01:56:55;;;;;;;1.23;0.68;;;;;;;5.90;92.67;102968.72;5069560;28;20044;-48
2024/01/11 01:59:25;;;;;;;3.05;0.40;;;;;;;5.91;92.69;102961.28;5069569;28;20037;-49
2024/01/11 02:01:53;;;;;;;4.43;0.50;;;;;;;5.91;92.71;102975.03;5069536;28;20053;-50
2024/01/11 02:04:22;;;;;;;3.53;0.50;;;;;;;5.91;92.71;102970.38;5069490;28;20048;-47
2024/01/11 02:06:51;;;;;;;2.75;0.40;;;;;;;5.91;92.66;102973.13;5067562;28;20056;-50
2024/01/11 02:09:19;;;;;;;0.65;0.22;;;;;;;5.93;92.65;102978.38;5062778;28;20533;-50
2024/01/11 02:11:46;;;;;;;1.13;0.45;;;;;;;5.94;92.91;102982.75;5069938;28;20687;-49
2024/01/11 02:14:15;;;;;;;5.15;0.85;;;;;;;5.94;92.83;102980.00;5067541;28;20051;-49
2024/01/11 02:16:43;;;;;;;3.10;0.60;;;;;;;5.95;92.73;102992.69;5060092;28;20053;-47
2024/01/11 02:19:13;;;;;;;1.48;0.50;;;;;;;5.96;92.71;102995.16;5068210;28;20048;-47
2024/01/11 02:21:46;;;;;;;1.85;0.45;;;;;;;5.97;92.98;102996.00;5068988;28;20044;-49
2024/01/11 02:24:13;;;;;;;2.22;0.93;;;;;;;5.97;93.01;102998.75;5055363;28;20048;-50
2024/01/11 02:27:02;;;;;;;1.48;0.25;;;;;;;5.99;92.94;103000.13;5068229;28;20054;-48
2024/01/11 02:29:31;;;;;;;2.47;0.73;;;;;;;6.01;93.21;103011.69;5063565;28;20044;-48
2024/01/11 02:32:01;;;;;;;3.40;0.50;;;;;;;6.02;93.01;103007.03;5068495;28;20059;-51
2024/01/11 02:34:30;;;;;;;3.97;1.92;;;;;;;6.03;93.33;103011.47;5068455;28;20040;-49
2024/01/11 02:36:57;;;;;;;1.95;0.52;;;;;;;6.02;93.15;103012.53;5065669;28;20036;-47
2024/01/11 02:39:26;;;;;;;2.67;0.43;;;;;;;6.03;93.44;103011.47;5065102;28;20048;-49
2024/01/11 02:41:56;;;;;;;4.00;0.50;;;;;;;6.03;93.81;103011.47;5068493;28;20049;-49
2024/01/11 02:44:24;;;;;;;1.55;0.70;;;;;;;6.03;93.64;103016.97;5065945;28;20462;-47
2024/01/11 02:46:51;;;;;;;4.80;0.75;;;;;;;6.03;93.67;103011.47;5067645;28;20449;-51
2024/01/11 02:49:18;;;;;;;4.57;0.88;;;;;;;6.01;93.65;103016.41;5067825;28;20041;-52
2024/01/11 02:51:46;;;;;;;5.00;0.93;;;;;;;5.99;93.32;103021.28;5067437;28;20052;-52
2024/01/11 02:54:13;;;;;;;9.60;0.82;;;;;;;6.00;93.21;103017.47;5067690;28;20045;-50
2024/01/11 02:56:41;;;;;;;1.52;0.65;;;;;;;5.99;93.08;103021.28;5066584;28;20041;-46
2024/01/11 02:59:09;;;;;;;1.33;0.65;;;;;;;6.00;93.01;103020.22;5065125;28;20055;-49
2024/01/11 03:01:37;;;;;;;4.40;0.50;;;;;;;6.00;92.84;103011.97;5142790;22;20060;-49
2024/01/11 03:04:05;;;;;;;1.80;0.70;;;;;;;6.00;92.82;103018.31;5068405;28;20052;-52
2024/01/11 03:06:32;;;;;;;2.88;0.70;;;;;;;6.00;92.45;103022.97;5067115;28;20394;-48
2024/01/11 03:09:00;;;;;;;3.75;0.40;;;;;;;6.00;92.18;103017.47;5063455;28;20057;-51
2024/01/11 03:11:27;;;;;;;9.85;1.67;;;;;;;6.01;92.52;103024.66;5067892;28;20036;-50
2024/01/11 03:13:55;;;;;;;4.35;0.60;;;;;;;6.00;92.48;103029.31;5062229;28;20514;-50
2024/01/11 03:16:23;;;;;;;3.40;0.93;;;;;;;6.00;92.32;103029.31;5067599;28;20506;-51
2024/01/11 03:18:50;;;;;;;3.10;1.02;;;;;;;6.01;92.19;103041.13;5065506;28;20521;-48
2024/01/11 03:21:18;;;;;;;3.83;0.77;;;;;;;6.01;92.03;103035.63;5067146;28;20072;-49
2024/01/11 03:23:45;;;;;;;3.10;0.75;;;;;;;6.02;92.11;103029.03;5067488;28;20063;-48
2024/01/11 03:26:16;;;;;;;3.35;0.70;;;;;;;6.02;92.08;103034.53;5049588;28;20071;-49
2024/01/11 03:28:44;;;;;;;5.32;1.00;;;;;;;6.02;91.98;103037.28;5067933;28;20699;-49
2024/01/11 03:31:12;;;;;;;3.78;0.85;;;;;;;6.01;92.06;103033.69;5057547;28;20040;-53
2024/01/11 03:33:40;;;;;;;5.07;1.05;;;;;;;6.02;92.17;103042.78;5066391;28;20052;-53
2024/01/11 03:36:08;;;;;;;4.88;1.17;;;;;;;6.02;91.83;103037.28;5067147;28;20053;-49
2024/01/11 03:38:36;;;;;;;6.28;1.05;;;;;;;6.02;92.06;103046.38;5067357;28;20049;-50
2024/01/11 03:41:10;;;;;;;10.27;1.58;;;;;;;6.03;92.00;103049.94;5066994;28;20398;-49
2024/01/11 03:43:38;;;;;;;4.25;0.98;;;;;;;6.02;92.21;103045.53;5063209;28;20053;-50
2024/01/11 03:46:05;;;;;;;2.60;1.00;;;;;;;6.02;92.11;103048.28;5066813;28;20052;-49
2024/01/11 03:48:33;;;;;;;5.18;0.73;;;;;;;6.00;92.16;103045.81;5067002;28;20077;-48
2024/01/11 03:51:00;;;;;;;5.80;1.15;;;;;;;6.00;92.10;103051.31;5050016;28;20041;-49
2024/01/11 03:53:28;;;;;;;2.67;0.93;;;;;;;6.01;92.11;103052.13;5066352;28;21252;-50
2024/01/11 03:55:55;;;;;;;6.85;0.88;;;;;;;6.00;92.37;103050.47;5066273;28;20444;-48
2024/01/11 03:58:23;;;;;;;5.82;1.00;;;;;;;6.00;92.15;103050.47;5066169;28;20059;-49
2024/01/11 04:00:50;;;;;;;1.88;0.70;;;;;;;5.99;92.11;103051.53;5066417;28;20048;-48
2024/01/11 04:03:17;;;;;;;6.25;1.88;;;;;;;5.98;91.87;103056.22;5066487;28;20040;-51
2024/01/11 04:05:45;;;;;;;5.55;1.27;;;;;;;5.98;92.03;103047.16;5067005;28;20049;-49
2024/01/11 04:08:12;;;;;;;9.52;1.10;;;;;;;5.99;91.86;103048.78;5064454;28;20987;-52
2024/01/11 04:10:40;;;;;;;8.25;2.17;;;;;;;5.99;91.83;103055.13;5056747;28;20060;-50
2024/01/11 04:13:07;;;;;;;7.47;1.13;;;;;;;5.99;91.61;103048.78;5067009;28;20040;-47
2024/01/11 04:15:35;;;;;;;2.83;1.00;;;;;;;5.98;91.61;103056.22;5067361;28;20810;-47
2024/01/11 04:18:02;;;;;;;4.13;1.05;;;;;;;5.97;91.55;103054.56;5066371;28;20056;-49
2024/01/11 04:20:30;;;;;;;7.60;1.98;;;;;;;5.98;91.61;103058.16;5065264;28;20064;-53
2024/01/11 04:22:57;;;;;;;6.93;1.20;;;;;;;5.99;91.50;103065.28;5067196;28;20056;-51
2024/01/11 04:25:25;;;;;;;6.13;0.80;;;;;;;5.98;91.40;103058.97;5048517;28;20068;-51
2024/01/11 04:27:52;;;;;;;8.95;1.33;;;;;;;5.97;91.46;103076.56;5066176;28;20048;-53
2024/01/11 04:30:20;;;;;;;2.92;0.98;;;;;;;5.96;91.48;103057.56;5052627;28;20049;-51
2024/01/11 04:32:47;;;;;;;10.38;1.27;;;;;;;5.96;91.39;103057.56;5071016;28;20055;-49
2024/01/11 04:35:15;;;;;;;9.63;2.60;;;;;;;5.96;91.25;103060.31;5070782;28;20440;-49
2024/01/11 04:37:42;;;;;;;3.38;1.10;;;;;;;5.95;91.36;103067.75;5059934;28;20041;-51
2024/01/11 04:40:10;;;;;;;6.88;1.30;;;;;;;5.96;91.21;103060.31;5068236;28;20040;-55
2024/01/11 04:42:37;;;;;;;4.05;1.13;;;;;;;5.98;91.20;103063.66;5071028;28;20056;-48
2024/01/11 04:45:05;;;;;;;7.57;1.65;;;;;;;5.97;91.25;103065.56;5071050;28;20051;-52
2024/01/11 04:47:32;;;;;;;7.53;1.38;;;;;;;5.97;91.16;103073.81;5070263;28;20055;-51
2024/01/11 04:50:00;;;;;;;9.00;1.67;;;;;;;5.97;91.07;103075.72;5071005;28;20929;-51
2024/01/11 04:52:27;;;;;;;5.25;1.00;;;;;;;5.97;90.99;103087.56;5070398;28;20074;-50
2024/01/11 04:54:54;;;;;;;6.13;3.10;;;;;;;5.97;90.84;103082.06;5070963;28;20056;-52
2024/01/11 04:57:22;;;;;;;4.13;0.82;;;;;;;5.99;90.60;103090.03;5070637;28;20041;-50
2024/01/11 04:59:49;;;;;;;14.38;1.40;;;;;;;6.00;90.60;103094.47;5070718;28;20393;-51
2024/01/11 05:02:16;;;;;;;4.63;1.45;;;;;;;6.00;90.59;103094.47;5061258;28;20064;-51
2024/01/11 05:04:44;;;;;;;4.43;0.77;;;;;;;5.99;90.50;103084.53;5065864;28;20045;-51
2024/01/11 05:07:11;;;;;;;6.60;1.00;;;;;;;6.00;90.17;103084.28;5070386;28;20041;-49
2024/01/11 05:09:38;;;;;;;8.00;0.95;;;;;;;6.00;90.14;103087.03;5070127;28;20064;-52
2024/01/11 05:12:06;;;;;;;5.30;1.05;;;;;;;6.00;90.03;103083.47;5060504;28;20041;-51
2024/01/11 05:14:33;;;;;;;6.93;1.50;;;;;;;6.02;90.30;103097.78;5066363;28;20059;-52
2024/01/11 05:17:01;;;;;;;9.73;1.73;;;;;;;6.01;90.13;103102.44;5070327;28;20406;-51
2024/01/11 05:19:28;;;;;;;8.07;2.47;;;;;;;6.00;90.05;103102.72;5069425;28;20055;-48
2024/01/11 05:21:56;;;;;;;3.80;0.90;;;;;;;6.01;89.94;103091.44;5070358;28;20536;-52
2024/01/11 05:24:24;;;;;;;7.45;0.98;;;;;;;6.02;90.12;103097.78;5065495;28;20080;-53
2024/01/11 05:26:51;;;;;;;5.95;1.20;;;;;;;6.01;90.18;103093.38;5061445;28;20045;-52
2024/01/11 05:29:18;;;;;;;6.93;1.02;;;;;;;6.00;89.74;103095.28;5069345;28;20056;-52
2024/01/11 05:31:46;;;;;;;12.15;1.98;;;;;;;6.01;89.88;103098.88;5069083;28;20509;-49
2024/01/11 05:34:14;;;;;;;4.82;1.30;;;;;;;6.01;89.57;103090.63;5068979;28;20166;-50
2024/01/11 05:36:41;;;;;;;4.90;1.27;;;;;;;6.02;89.70;103092.28;5069512;28;20902;-53
2024/01/11 05:39:09;;;;;;;10.23;1.30;;;;;;;6.03;89.66;103099.44;5069479;28;20036;-51
2024/01/11 05:41:36;;;;;;;2.75;1.17;;;;;;;6.04;89.43;103103.84;5068610;28;20046;-50
2024/01/11 05:44:04;;;;;;;6.43;1.30;;;;;;;6.05;89.29;103108.25;5068310;28;20090;-52
2024/01/11 05:46:32;;;;;;;10.65;1.42;;;;;;;6.04;89.32;103107.44;5068807;28;20405;-51
2024/01/11 05:49:01;;;;;;;4.03;2.05;;;;;;;6.05;89.70;103105.50;5054722;28;20051;-52
2024/01/11 05:51:29;;;;;;;6.35;0.93;;;;;;;6.05;89.38;103113.75;5063495;28;20402;-50
2024/01/11 05:53:56;;;;;;;5.88;1.15;;;;;;;6.05;89.68;103114.59;5068714;28;20056;-53
2024/01/11 05:56:23;;;;;;;7.13;1.48;;;;;;;6.05;89.70;103116.50;5069152;28;20056;-53
2024/01/11 05:58:51;;;;;;;11.38;1.40;;;;;;;6.05;89.60;103111.00;5068983;28;20044;-52
2024/01/11 06:01:18;;;;;;;11.10;1.20;;;;;;;6.06;89.72;103121.75;5050459;28;20506;-49
2024/01/11 06:03:45;;;;;;;4.32;1.10;;;;;;;6.06;89.38;103110.75;5069426;28;20048;-48
2024/01/11 06:06:15;;;;;;;6.10;0.90;;;;;;;6.07;89.31;103117.09;5069370;28;20593;-50
2024/01/11 06:08:43;;;;;;;6.43;1.58;;;;;;;6.07;89.52;103111.56;5066865;28;20080;-51
2024/01/11 06:11:11;;;;;;;4.97;1.38;;;;;;;6.08;89.44;103105.00;5068844;28;20063;-51
2024/01/11 06:13:41;;;;;;;4.43;0.85;;;;;;;6.07;89.33;103111.56;5069071;28;20055;-49
2024/01/11 06:16:08;;;;;;;5.72;1.17;;;;;;;6.08;89.08;103114.09;5065252;28;20119;-54
2024/01/11 06:18:39;;;;;;;7.18;0.95;;;;;;;6.09;89.22;103120.41;5067849;28;20402;-47
2024/01/11 06:21:07;;;;;;;6.30;1.25;;;;;;;6.09;89.47;103121.22;5066888;28;20049;-50
2024/01/11 06:23:34;;;;;;;6.18;1.17;;;;;;;6.09;89.06;103125.91;5068249;28;20037;-49
2024/01/11 06:26:02;;;;;;;8.10;1.48;;;;;;;6.08;88.86;103136.09;5068282;28;20048;-48
2024/01/11 06:28:29;;;;;;;5.85;0.65;;;;;;;6.06;89.54;103140.19;5068498;28;20048;-52
2024/01/11 06:30:59;;;;;;;2.63;1.10;;;;;;;6.06;89.49;103145.69;5068412;28;20706;-52
2024/01/11 06:33:27;;;;;;;6.82;1.65;;;;;;;6.06;89.15;103151.19;5068599;28;20041;-49
2024/01/11 06:35:57;;;;;;;5.50;0.82;;;;;;;6.08;89.30;103160.00;5068931;28;20048;-51
2024/01/11 06:38:25;;;;;;;5.93;1.20;;;;;;;6.05;89.05;103155.84;5068126;28;20131;-54
2024/01/11 06:40:52;;;;;;;7.68;1.02;;;;;;;6.05;89.22;103152.25;5064446;28;20063;-53
2024/01/11 06:43:19;;;;;;;7.30;1.30;;;;;;;6.05;88.91;103158.59;5057171;28;20055;-49
2024/01/11 06:45:47;;;;;;;3.72;1.27;;;;;;;6.06;89.30;103162.19;5066323;28;20041;-49
2024/01/11 06:48:14;;;;;;;8.02;2.70;;;;;;;6.05;88.93;103157.75;5066860;28;20053;-48
2024/01/11 06:50:42;;;;;;;3.72;1.02;;;;;;;6.05;89.04;103177.00;5068040;28;20045;-52
2024/01/11 06:53:09;;;;;;;5.32;0.85;;;;;;;6.05;88.92;103179.75;5066092;28;20045;-50
2024/01/11 06:55:36;;;;;;;7.05;1.10;;;;;;;6.05;88.93;103177.00;5067060;28;20063;-49
2024/01/11 06:58:04;;;;;;;2.17;0.77;;;;;;;6.07;89.12;103183.09;5067635;28;20473;-50
2024/01/11 07:00:32;;;;;;;9.73;1.02;;;;;;;6.06;88.97;103181.44;5067532;28;20067;-50
2024/01/11 07:02:59;;;;;;;3.63;0.93;;;;;;;6.08;89.03;103191.09;5061982;28;20040;-49
2024/01/11 07:05:27;;;;;;;7.85;1.13;;;;;;;6.08;88.99;103191.09;5061764;28;20053;-49
2024/01/11 07:07:57;;;;;;;3.92;0.73;;;;;;;6.09;89.09;103189.16;5055839;28;20048;-49
2024/01/11 07:10:24;;;;;;;3.97;0.80;;;;;;;6.06;89.06;103193.25;5057241;28;20044;-50
2024/01/11 07:12:52;;;;;;;6.78;0.88;;;;;;;6.08;89.03;103187.50;5062561;28;20048;-51
2024/01/11 07:15:19;;;;;;;5.47;1.48;;;;;;;6.08;88.86;103190.25;5063477;28;20052;-53
2024/01/11 07:17:46;;;;;;;7.00;1.08;;;;;;;6.08;88.89;103191.09;5064127;28;20044;-49
2024/01/11 07:20:16;;;;;;;3.20;0.85;;;;;;;6.06;89.05;103189.69;5061685;28;20044;-56
2024/01/11 07:22:44;;;;;;;7.82;1.05;;;;;;;6.07;89.11;103188.56;5047959;28;20070;-50
2024/01/11 07:25:11;;;;;;;7.53;1.45;;;;;;;6.06;89.15;103190.50;5062409;28;20329;-51
2024/01/11 07:27:38;;;;;;;6.55;1.25;;;;;;;6.05;89.06;103197.09;5061615;28;20052;-50
2024/01/11 07:30:06;;;;;;;6.93;1.05;;;;;;;6.07;89.27;103196.81;5051797;28;20045;-54
2024/01/11 07:32:34;;;;;;;5.43;0.75;;;;;;;6.09;89.21;103200.16;5055474;28;20041;-50
2024/01/11 07:35:02;;;;;;;10.50;1.20;;;;;;;6.09;89.19;103208.41;5057322;28;20424;-52
2024/01/11 07:37:33;;;;;;;6.55;0.95;;;;;;;6.09;89.45;103208.41;5066380;28;20529;-52
2024/01/11 07:40:00;;;;;;;5.82;0.90;;;;;;;6.11;89.17;103217.25;5066917;28;20549;-52
2024/01/11 07:42:27;;;;;;;5.55;0.82;;;;;;;6.11;89.43;103222.75;5067791;28;20071;-52
2024/01/11 07:44:55;;;;;;;5.70;1.10;;;;;;;6.12;89.23;103227.97;5067001;28;20037;-53
2024/01/11 07:47:22;;;;;;;6.05;1.40;;;;;;;6.13;89.32;103217.81;5067315;28;20498;-53
2024/01/11 07:49:50;;;;;;;7.88;1.58;;;;;;;6.12;89.37;103229.91;5053832;28;20052;-48
2024/01/11 07:52:17;;;;;;;5.30;1.60;;;;;;;6.11;89.54;103231.84;5067632;28;20041;-51
2024/01/11 07:54:47;;;;;;;3.58;1.90;;;;;;;6.11;89.43;103234.59;5054572;28;20055;-54
2024/01/11 07:57:15;;;;;;;5.97;1.48;;;;;;;6.12;89.45;103246.41;5067479;28;20502;-52
2024/01/11 07:59:42;;;;;;;12.07;1.80;;;;;;;6.11;89.68;103247.50;5067410;28;20506;-51
2024/01/11 08:02:10;;;;;;;4.72;1.30;;;;;;;6.12;89.75;103240.91;5066748;28;20053;-52
2024/01/11 08:04:38;;;;;;;8.50;1.35;;;;;;;6.13;90.01;103239.81;5066761;28;20048;-47
2024/01/11 08:07:06;;;;;;;8.05;1.42;;;;;;;6.14;89.76;103244.25;5066842;28;20055;-52
2024/01/11 08:09:33;;;;;;;9.95;1.30;;;;;;;6.14;89.96;103250.56;5053906;28;20045;-51
2024/01/11 08:12:00;;;;;;;6.43;0.98;;;;;;;6.14;90.26;103252.50;5065686;28;20079;-52
2024/01/11 08:14:28;;;;;;;6.00;1.13;;;;;;;6.14;90.29;103252.50;5065446;28;20053;-50
2024/01/11 08:16:55;;;;;;;2.92;1.38;;;;;;;6.14;90.25;103258.81;5065598;28;20850;-50
2024/01/11 08:19:22;;;;;;;5.70;1.02;;;;;;;6.16;90.43;103264.06;5065047;28;20060;-51
2024/01/11 08:21:50;;;;;;;5.53;1.20;;;;;;;6.17;90.38;103275.91;5066623;28;20048;-53
2024/01/11 08:24:18;;;;;;;4.85;0.93;;;;;;;6.19;90.35;103277.31;5066912;28;20056;-49
2024/01/11 08:26:45;;;;;;;5.18;2.65;;;;;;;6.19;90.60;103277.31;5067182;28;20052;-55
2024/01/11 08:29:13;;;;;;;9.13;1.45;;;;;;;6.19;90.77;103268.22;5066575;28;20048;-51
2024/01/11 08:31:43;;;;;;;2.65;0.52;;;;;;;6.20;90.62;103283.63;5067417;28;20063;-52
2024/01/11 08:34:11;;;;;;;5.35;0.88;;;;;;;6.20;90.70;103280.88;5048951;28;20045;-53
2024/01/11 08:36:38;;;;;;;3.30;0.90;;;;;;;6.20;90.69;103286.38;5067086;28;20064;-54
2024/01/11 08:39:06;;;;;;;9.93;1.45;;;;;;;6.18;90.64;103292.16;5067156;28;20044;-53
2024/01/11 08:41:43;;;;;;;5.10;1.30;;;;;;;6.19;90.72;103288.31;5066790;28;20040;-48
2024/01/11 08:44:10;;;;;;;7.60;1.13;;;;;;;6.19;90.75;103295.72;5067085;28;20402;-48
2024/01/11 08:46:38;;;;;;;5.93;1.40;;;;;;;6.17;90.71;103293.22;5067159;28;20135;-52
2024/01/11 08:49:06;;;;;;;5.95;1.05;;;;;;;6.18;90.86;103292.16;5066949;28;20053;-50
2024/01/11 08:51:35;;;;;;;7.97;0.90;;;;;;;6.18;90.96;103294.91;5067093;28;20779;-49
2024/01/11 08:54:04;;;;;;;4.50;1.02;;;;;;;6.18;90.90;103303.16;5054258;28;20535;-53
2024/01/11 08:56:31;;;;;;;2.22;0.90;;;;;;;6.19;90.73;103310.31;5066507;28;20182;-49
2024/01/11 08:58:58;;;;;;;6.57;1.10;;;;;;;6.20;90.77;103313.88;5067220;28;20041;-49
2024/01/11 09:01:26;;;;;;;4.35;0.90;;;;;;;6.20;90.84;103314.72;5066433;28;20061;-50
2024/01/11 09:03:53;;;;;;;9.45;1.25;;;;;;;6.20;90.66;103319.38;5066881;28;20052;-51
2024/01/11 09:06:21;;;;;;;5.90;1.30;;;;;;;6.20;90.91;103320.22;5066990;28;20052;-51
2024/01/11 09:08:48;;;;;;;5.00;1.20;;;;;;;6.20;90.62;103311.97;5061768;28;20052;-54
2024/01/11 09:11:17;;;;;;;6.75;1.30;;;;;;;6.22;90.77;103317.22;5044728;28;21462;-52
2024/01/11 09:13:46;;;;;;;8.00;2.35;;;;;;;6.22;90.86;103320.81;5049409;28;20039;-52
2024/01/11 09:16:16;;;;;;;1.85;0.70;;;;;;;6.23;90.74;103321.63;5054141;28;20059;-53
2024/01/11 09:18:44;;;;;;;3.17;0.63;;;;;;;6.24;90.67;103318.66;5070621;28;20541;-53
2024/01/11 09:21:12;;;;;;;6.90;1.08;;;;;;;6.25;90.68;103328.53;5052231;28;20040;-50
2024/01/11 09:23:39;;;;;;;5.85;1.20;;;;;;;6.26;90.73;103341.22;5070441;28;20063;-52
2024/01/11 09:26:07;;;;;;;12.25;1.38;;;;;;;6.28;90.60;103329.94;5069625;28;20067;-52
2024/01/11 09:28:34;;;;;;;2.88;1.30;;;;;;;6.28;90.85;103332.69;5070251;28;20047;-53
2024/01/11 09:31:01;;;;;;;5.03;1.60;;;;;;;6.29;90.73;103345.38;5070335;28;21023;-49
2024/01/11 09:33:29;;;;;;;2.13;0.80;;;;;;;6.30;90.54;103342.38;5070058;28;20071;-53
2024/01/11 09:35:57;;;;;;;4.85;1.25;;;;;;;6.31;90.89;103345.97;5070018;28;20068;-52
2024/01/11 09:38:24;;;;;;;6.50;0.90;;;;;;;6.31;90.54;103349.53;5070347;28;20592;-53
2024/01/11 09:41:07;;;;;;;4.10;0.65;;;;;;;6.34;90.60;103353.72;5051847;28;20058;-51
2024/01/11 09:43:37;;;;;;;6.80;1.95;;;;;;;6.37;90.59;103358.72;5069674;28;20059;-50
2024/01/11 09:46:05;;;;;;;15.35;2.58;;;;;;;6.38;90.61;103368.66;5070181;28;20052;-52
2024/01/11 09:48:40;;;;;;;9.55;1.83;;;;;;;6.40;90.60;103366.47;5070155;28;20059;-54
2024/01/11 09:51:10;;;;;;;6.38;1.35;;;;;;;6.41;90.61;103366.19;5070121;28;20494;-48
2024/01/11 09:53:39;;;;;;;5.72;0.90;;;;;;;6.42;90.71;103367.88;5069893;28;20072;-53
2024/01/11 09:56:09;;;;;;;4.10;1.90;;;;;;;6.44;90.64;103373.09;5069598;28;20044;-54
2024/01/11 09:58:38;;;;;;;6.68;1.50;;;;;;;6.44;90.69;103376.69;5056520;28;20052;-50
2024/01/11 10:01:12;;;;;;;4.95;1.40;;;;;;;6.45;90.63;103383.03;5069462;28;20264;-54
2024/01/11 10:03:41;;;;;;;2.97;0.70;;;;;;;6.45;90.73;103380.28;5038698;28;20406;-54
2024/01/11 10:06:10;;;;;;;5.88;0.90;;;;;;;6.45;90.51;103377.53;5051601;28;20410;-54
2024/01/11 10:08:37;;;;;;;4.75;0.93;;;;;;;6.47;90.75;103386.38;5069889;28;20047;-51
2024/01/11 10:11:04;;;;;;;5.57;0.85;;;;;;;6.47;90.54;103392.72;5069365;28;20056;-51
2024/01/11 10:13:32;;;;;;;3.15;1.20;;;;;;;6.49;90.57;103400.69;5069436;28;20036;-52
2024/01/11 10:16:13;;;;;;;5.93;1.58;;;;;;;6.48;90.58;103394.38;5069408;28;20553;-51
2024/01/11 10:18:41;;;;;;;10.93;2.28;;;;;;;6.49;90.57;103401.53;5068852;28;20510;-50
2024/01/11 10:21:09;;;;;;;3.13;0.93;;;;;;;6.51;90.56;103415.88;5069170;28;20048;-50
2024/01/11 10:23:38;;;;;;;4.53;1.27;;;;;;;6.52;90.54;103416.72;5058779;28;20120;-53
2024/01/11 10:26:07;;;;;;;4.80;1.02;;;;;;;6.53;90.55;103419.22;5066818;28;20055;-51
2024/01/11 10:28:37;;;;;;;4.88;1.60;;;;;;;6.55;90.51;103419.78;5068920;28;20052;-49
2024/01/11 10:31:08;;;;;;;4.68;1.20;;;;;;;6.56;90.56;103421.47;5069379;28;20055;-50
2024/01/11 10:33:37;;;;;;;2.87;0.77;;;;;;;6.57;90.64;103420.38;5069546;28;20048;-51
2024/01/11 10:36:07;;;;;;;7.85;1.10;;;;;;;6.59;90.69;103418.19;5068602;28;20484;-52
2024/01/11 10:38:37;;;;;;;4.45;1.35;;;;;;;6.61;90.65;103418.78;5068875;28;20056;-53
2024/01/11 10:41:06;;;;;;;5.30;0.90;;;;;;;6.63;90.47;103424.03;5068562;28;20048;-53
2024/01/11 10:43:38;;;;;;;6.38;0.70;;;;;;;6.63;90.60;103424.88;5068854;28;20083;-50
2024/01/11 10:46:07;;;;;;;3.42;1.00;;;;;;;6.65;90.28;103439.22;5068619;28;20544;-51
2024/01/11 10:48:41;;;;;;;3.88;1.10;;;;;;;6.64;90.35;103426.56;5068197;28;20445;-52
2024/01/11 10:51:12;;;;;;;4.90;1.52;;;;;;;6.65;90.07;103425.44;5068936;28;20528;-49
2024/01/11 10:53:47;;;;;;;7.38;1.65;;;;;;;6.66;89.93;103424.38;5067887;28;20067;-48
2024/01/11 10:56:16;;;;;;;3.17;1.30;;;;;;;6.69;89.97;103423.88;5068342;28;20040;-52
2024/01/11 10:58:44;;;;;;;6.07;2.63;;;;;;;6.71;89.87;103426.34;5068290;28;20502;-53
2024/01/11 11:01:12;;;;;;;4.32;1.67;;;;;;;6.73;89.63;103430.50;5068332;28;20060;-54
2024/01/11 11:03:42;;;;;;;8.48;3.03;;;;;;;6.77;89.83;103441.03;5068748;28;20043;-50
2024/01/11 11:06:11;;;;;;;7.47;2.80;;;;;;;6.78;89.71;103437.19;5067870;28;20052;-50
2024/01/11 11:08:42;;;;;;;7.05;3.20;;;;;;;6.80;89.52;103452.38;5064081;28;20037;-54
2024/01/11 11:11:09;;;;;;;8.52;3.90;;;;;;;6.83;89.44;103445.53;5064055;28;20040;-54
2024/01/11 11:13:38;;;;;;;8.65;3.75;;;;;;;6.84;89.39;103448.00;5068655;28;20604;-54
2024/01/11 11:16:06;;;;;;;9.40;3.40;;;;;;;6.85;89.38;103449.69;5067741;28;21686;-51
2024/01/11 11:18:37;;;;;;;4.72;1.33;;;;;;;6.87;89.35;103453.00;5068217;28;20051;-49
2024/01/11 11:21:11;;;;;;;1.92;1.42;;;;;;;6.87;89.25;103452.16;5067881;28;20036;-52
2024/01/11 11:23:39;;;;;;;2.72;0.80;;;;;;;6.87;89.08;103452.16;5068180;28;20060;-52
2024/01/11 11:26:15;;;;;;;4.30;1.05;;;;;;;6.88;88.92;103448.34;5050735;28;20052;-52
2024/01/11 11:28:43;;;;;;;4.18;1.15;;;;;;;6.89;89.14;103447.22;5067942;28;20051;-52
2024/01/11 11:31:14;;;;;;;9.95;2.45;;;;;;;6.93;89.07;103445.66;5054653;28;20044;-53
2024/01/11 11:33:42;;;;;;;3.95;0.90;;;;;;;6.94;89.15;103450.06;5067983;28;20052;-50
2024/01/11 11:36:13;;;;;;;1.77;0.70;;;;;;;6.96;88.96;103456.16;5067177;28;20048;-53
2024/01/11 11:38:41;;;;;;;1.90;0.95;;;;;;;6.96;88.98;103457.00;5066586;28;20044;-52